Latest Weather Observations for Mount Boyce

IDN60801

Issued at 3:05 pm EDT Sunday 26 October 2014 (issued every 30 minutes, with the page automatically refreshed every 10 minutes)

About weather observations | Map of weather stations | Latest weather observations for NSW | Other Formats
Station Details ID: 063292 Name: MOUNT BOYCE AWS Lat: -33.62 Lon: 150.27 Height: 1080.0 m
Data from the previous 72 hours. | See also: Recent months at Mount Boyce
Date/Time
EDT
Temp
°C
App
Temp
°C
Dew
Point
Rel
Hum
%
Delta-T
°C
Wind Press
QNH
hPa
Press
MSL
hPa
Rain
since 9 am
mm
Dir
 
Spd
km/h
Gust
km/h
Spd
kts
Gust
kts
26/03:00pm 26.3 19.6 5.8 27 11.1 W 30 41 16 22 - - 0.2
26/02:30pm 26.4 20.8 5.4 26 11.3 W 24 35 13 19 - - 0.2
26/02:00pm 25.9 19.6 5.5 27 11.0 W 28 43 15 23 - - 0.2
26/01:30pm 25.9 19.9 5.5 27 11.0 W 26 48 14 26 - - 0.2
26/01:00pm 25.4 18.0 4.0 25 11.2 W 32 50 17 27 - - 0.2
26/12:30pm 24.4 16.4 1.9 23 11.3 W 33 59 18 32 - - 0.2
26/12:00pm 24.3 17.3 7.0 33 9.5 W 33 54 18 29 - - 0.2
26/11:40am 23.8 18.0 7.8 36 8.9 W 28 46 15 25 - - 0.2
26/11:30am 23.4 17.5 7.5 36 8.8 W 28 43 15 23 - - 0.2
26/11:00am 22.7 16.2 6.5 35 8.7 W 30 44 16 24 - - 0.2
26/10:30am 22.1 14.6 6.3 36 8.5 W 35 52 19 28 - - 0.2
26/10:12am 22.0 15.1 7.4 39 8.0 W 33 52 18 28 - - 0.2
26/10:00am 21.5 14.1 6.6 38 8.0 W 35 50 19 27 - - 0.2
26/09:30am 20.9 14.2 7.2 41 7.4 W 32 50 17 27 - - 0.0
26/09:29am 20.8 14.0 7.1 41 7.4 W 32 50 17 27 - - 0.0
26/09:00am 20.3 15.5 7.3 43 7.0 W 22 35 12 19 - - 0.4
26/08:30am 19.9 14.5 6.3 41 7.2 W 24 32 13 17 - - 0.4
26/08:00am 19.6 14.9 6.0 41 7.1 W 20 32 11 17 - - 0.4
26/07:30am 19.5 14.2 5.2 39 7.4 W 22 35 12 19 - - 0.4
26/07:00am 19.5 14.2 5.2 39 7.4 WNW 22 37 12 20 - - 0.4
26/06:30am 19.2 14.6 5.6 41 7.1 WNW 19 32 10 17 - - 0.4
26/06:00am 19.1 14.5 5.6 41 7.0 WNW 19 30 10 16 - - 0.4
26/05:30am 20.0 15.1 5.3 38 7.6 NW 20 35 11 19 - - 0.4
26/05:00am 19.5 15.2 5.2 39 7.4 NW 17 26 9 14 - - 0.4
26/04:30am 19.8 15.9 5.5 39 7.4 NW 15 32 8 17 - - 0.4
26/04:00am 19.7 15.9 5.7 40 7.3 N 15 24 8 13 - - 0.4
26/03:30am 19.5 16.2 6.6 43 6.8 NNW 13 24 7 13 - - 0.4
26/03:00am 19.2 16.3 6.7 44 6.6 NW 11 22 6 12 - - 0.4
26/02:30am 19.1 16.1 7.5 47 6.2 N 13 19 7 10 - - 0.4
26/02:00am 18.7 15.6 8.9 53 5.4 NNE 15 28 8 15 - - 0.4
26/01:30am 18.0 15.9 9.6 58 4.7 NNE 11 19 6 10 - - 0.4
26/01:00am 18.0 15.5 10.9 63 4.0 NNE 15 24 8 13 - - 0.4
26/12:30am 15.7 14.4 12.6 82 1.8 NE 11 17 6 9 - - 0.4
26/12:00am 17.3 15.6 12.6 74 2.7 NE 13 19 7 10 - - 0.4
 
Date/Time
EDT
Temp
°C
App
Temp
°C
Dew
Point
Rel
Hum
%
Delta-T
°C
Wind Press
QNH
hPa
Press
MSL
hPa
Rain
since 9 am
mm
Dir
 
Spd
km/h
Gust
km/h
Spd
kts
Gust
kts
25/11:30pm 16.8 15.8 12.3 75 2.6 NNE 9 13 5 7 - - 0.4
25/11:22pm 15.8 15.3 12.7 82 1.8 ENE 7 11 4 6 - - 0.4
25/11:03pm 16.6 14.6 12.6 77 2.3 W 15 28 8 15 - - 0.2
25/11:00pm 16.8 14.2 12.1 74 2.7 W 17 28 9 15 - - 0.0
25/10:30pm 17.4 17.3 14.9 85 1.5 WNW 9 17 5 9 - - 0.0
25/10:00pm 16.5 15.5 14.7 89 1.1 ENE 13 19 7 10 - - 0.0
25/09:30pm 16.8 15.8 14.6 87 1.3 ENE 13 19 7 10 - - 0.0
25/09:00pm 17.3 16.2 14.2 82 1.9 ENE 13 17 7 9 - - 0.0
25/08:30pm 18.4 17.7 14.3 77 2.5 ENE 11 17 6 9 - - 0.0
25/08:00pm 18.9 18.2 13.3 70 3.3 ENE 9 13 5 7 - - 0.0
25/07:30pm 19.8 18.7 12.1 61 4.5 ENE 9 13 5 7 - - 0.0
25/07:00pm 20.8 18.5 5.6 37 8.0 NE 7 11 4 6 - - 0.0
25/06:30pm 24.1 21.5 5.9 31 9.8 W 9 15 5 8 - - 0.0
25/06:00pm 24.5 19.8 5.3 29 10.2 WSW 19 28 10 15 - - 0.0
25/05:30pm 24.8 19.9 4.0 26 10.9 WSW 19 33 10 18 - - 0.0
25/05:00pm 27.3 21.5 4.4 23 12.2 W 24 37 13 20 - - 0.0
25/04:30pm 27.8 23.0 5.4 24 12.2 W 20 32 11 17 - - 0.0
25/04:00pm 27.9 24.2 6.1 25 12.0 WSW 15 26 8 14 - - 0.0
25/03:30pm 25.9 21.1 5.5 27 11.0 WSW 20 30 11 16 - - 0.0
25/03:00pm 26.4 21.3 4.2 24 11.7 WSW 20 30 11 16 - - 0.0
25/02:30pm 26.0 20.6 4.5 25 11.4 WSW 22 37 12 20 - - 0.0
25/02:00pm 26.7 21.7 4.5 24 11.8 WSW 20 33 11 18 - - 0.0
25/01:30pm 26.7 21.4 5.1 25 11.6 WSW 22 35 12 19 - - 0.0
25/01:00pm 24.8 21.9 6.5 31 10.0 WSW 11 17 6 9 - - 0.0
25/12:30pm 25.5 21.7 5.7 28 10.7 W 15 24 8 13 - - 0.0
25/12:00pm 25.5 22.6 6.7 30 10.3 W 11 19 6 10 - - 0.0
25/11:30am 24.8 21.9 6.5 31 10.0 W 11 17 6 9 - - 0.0
25/11:00am 23.9 21.0 6.7 33 9.4 WSW 11 17 6 9 - - 0.0
25/10:30am 23.3 20.6 5.7 32 9.4 SW 9 15 5 8 - - 0.0
25/10:00am 22.0 19.2 7.0 38 8.1 SW 11 17 6 9 - - 0.0
25/09:30am 20.9 18.5 5.3 36 8.1 SW 7 13 4 7 - - 0.0
25/09:00am 20.2 16.5 4.3 35 8.1 SW 13 20 7 11 - - 0.0
25/08:30am 19.3 15.4 3.5 35 7.9 SW 13 20 7 11 - - 0.0
25/08:00am 18.1 15.6 3.6 38 7.2 W 6 11 3 6 - - 0.0
25/07:30am 16.9 13.0 3.2 40 6.7 WSW 13 15 7 8 - - 0.0
25/07:00am 15.9 12.4 3.7 44 6.0 WSW 11 19 6 10 - - 0.0
25/06:30am 15.8 11.9 3.6 44 6.0 W 13 19 7 10 - - 0.0
25/06:00am 15.9 11.7 3.7 44 6.0 W 15 20 8 11 - - 0.0
25/05:30am 16.5 11.9 3.6 42 6.3 W 17 20 9 11 - - 0.0
25/05:00am 16.8 12.2 3.5 41 6.5 W 17 24 9 13 - - 0.0
25/04:30am 17.0 12.0 4.7 44 6.2 W 20 28 11 15 - - 0.0
25/04:00am 17.2 12.4 5.8 47 5.9 W 20 26 11 14 - - 0.0
25/03:30am 17.5 12.9 6.4 48 5.8 W 20 28 11 15 - - 0.0
25/03:00am 18.1 13.1 6.3 46 6.2 W 22 35 12 19 - - 0.0
25/02:30am 17.9 13.5 6.7 48 5.9 WSW 19 28 10 15 - - 0.0
25/02:00am 18.3 13.8 6.8 47 6.1 WSW 20 35 11 19 - - 0.0
25/01:30am 17.5 14.0 7.0 50 5.5 W 15 20 8 11 - - 0.0
25/01:00am 18.0 15.2 7.1 49 5.8 W 11 13 6 7 - - 0.0
25/12:30am 18.5 15.8 7.3 48 6.0 WSW 11 13 6 7 - - 0.0
25/12:00am 18.9 15.8 7.4 47 6.2 W 13 17 7 9 - - 0.0
 
Date/Time
EDT
Temp
°C
App
Temp
°C
Dew
Point
Rel
Hum
%
Delta-T
°C
Wind Press
QNH
hPa
Press
MSL
hPa
Rain
since 9 am
mm
Dir
 
Spd
km/h
Gust
km/h
Spd
kts
Gust
kts
24/11:30pm 19.0 16.3 7.4 47 6.2 W 11 15 6 8 - - 0.0
24/11:00pm 19.3 16.4 8.0 48 6.1 WSW 13 19 7 10 - - 0.0
24/10:30pm 20.0 16.9 7.1 43 6.9 W 13 20 7 11 - - 0.0
24/10:00pm 20.9 18.6 5.7 37 8.0 WNW 7 13 4 7 - - 0.0
24/09:30pm 22.3 17.9 4.8 32 9.1 WNW 17 28 9 15 - - 0.0
24/09:05pm 22.7 16.4 5.6 33 9.1 WNW 28 46 15 25 - - 0.0
24/09:00pm 22.6 17.4 5.5 33 9.0 WNW 22 44 12 24 - - 0.0
24/08:30pm 20.9 18.4 11.0 53 5.7 N 15 26 8 14 - - 0.0
24/08:00pm 20.1 18.4 11.1 56 5.2 NE 11 19 6 10 - - 0.0
24/07:30pm 20.4 18.6 10.8 54 5.5 NE 11 17 6 9 - - 0.0
24/07:00pm 21.0 19.2 10.8 52 5.9 NE 11 15 6 8 - - 0.0
24/06:30pm 22.0 20.2 10.8 49 6.5 NE 11 19 6 10 - - 0.0
24/06:00pm 22.7 21.4 11.1 48 6.8 ENE 9 15 5 8 - - 0.0
24/05:30pm 23.4 21.7 11.1 46 7.2 NE 11 17 6 9 - - 0.0
24/05:00pm 23.8 22.1 9.8 41 8.0 N 9 20 5 11 - - 0.0
24/04:30pm 24.5 22.3 9.3 38 8.7 NW 11 19 6 10 - - 0.0
24/04:00pm 24.6 21.6 9.3 38 8.7 WNW 15 30 8 16 - - 0.0
24/03:30pm 24.7 20.6 8.6 36 9.1 WNW 20 35 11 19 - - 0.0
24/03:00pm 26.2 24.2 11.5 40 8.8 NNW 13 17 7 9 - - 0.0
24/02:30pm 24.4 19.8 9.6 39 8.5 WNW 24 32 13 17 - - 0.0
24/02:00pm 24.8 22.8 10.3 40 8.4 WNW 11 24 6 13 - - 0.0
24/01:30pm 24.2 21.5 9.0 38 8.6 NW 13 24 7 13 - - 0.0
24/01:00pm 24.9 22.4 9.6 38 8.8 NNW 13 24 7 13 - - 0.0
24/12:30pm 24.3 22.0 9.1 38 8.6 NNW 11 22 6 12 - - 0.0
24/12:00pm 24.0 21.6 9.9 41 8.1 NNW 13 20 7 11 - - 0.0
24/11:30am 22.7 20.4 10.5 46 7.1 N 13 28 7 15 - - 0.0
24/11:00am 21.3 19.7 11.6 54 5.7 NE 11 26 6 14 - - 0.0
24/10:30am 19.5 17.5 10.2 55 5.3 NE 11 22 6 12 - - 0.0
24/10:00am 19.9 17.8 9.8 52 5.7 NNE 11 24 6 13 - - 0.0
24/09:30am 17.9 16.1 9.3 57 4.8 NE 9 13 5 7 - - 0.0
24/09:00am 18.0 15.4 9.4 57 4.8 NE 13 26 7 14 - - 1.2
24/08:30am 17.9 15.4 9.8 59 4.5 NNE 13 28 7 15 - - 1.2
24/08:00am 15.7 13.8 9.1 65 3.6 NW 9 17 5 9 - - 1.2
24/07:30am 14.9 12.9 8.8 67 3.3 NW 9 15 5 8 - - 1.2
24/07:00am 14.3 12.3 8.7 69 3.0 NE 9 15 5 8 - - 1.2
24/06:30am 13.4 12.8 9.1 75 2.3 WSW 2 6 1 3 - - 1.2
24/06:00am 12.6 10.7 9.2 80 1.8 WSW 9 11 5 6 - - 1.2
24/05:30am 12.3 10.5 9.5 83 1.5 SW 9 15 5 8 - - 1.2
24/05:00am 13.6 11.5 9.8 78 2.1 S 11 17 6 9 - - 1.0
24/04:30am 12.6 9.7 9.6 82 1.6 ENE 15 24 8 13 - - 0.8
24/04:00am 12.5 10.1 9.9 84 1.4 W 13 17 7 9 - - 0.8
24/03:30am 11.9 9.2 10.3 90 0.9 WSW 15 19 8 10 - - 0.6
24/03:00am 11.9 9.3 9.3 84 1.4 W 13 20 7 11 - - 0.6
24/02:30am 12.9 12.7 10.4 85 1.4 N 2 7 1 4 - - 0.6
24/02:00am 13.4 12.5 10.8 84 1.4 ENE 6 9 3 5 - - 0.6
24/01:30am 13.3 12.2 10.8 85 1.4 ENE 7 11 4 6 - - 0.6
24/01:00am 13.1 11.5 10.1 82 1.6 ENE 9 13 5 7 - - 0.6
24/12:30am 12.3 10.1 9.3 82 1.6 ENE 11 13 6 7 - - 0.6
24/12:00am 12.3 10.0 9.0 80 1.8 ENE 11 15 6 8 - - 0.6
 
Date/Time
EDT
Temp
°C
App
Temp
°C
Dew
Point
Rel
Hum
%
Delta-T
°C
Wind Press
QNH
hPa
Press
MSL
hPa
Rain
since 9 am
mm
Dir
 
Spd
km/h
Gust
km/h
Spd
kts
Gust
kts
23/11:30pm 13.2 10.8 8.7 74 2.4 ENE 11 15 6 8 - - 0.6
23/11:00pm 14.2 12.0 7.7 65 3.4 NE 9 13 5 7 - - 0.6
23/10:30pm 15.2 13.4 8.0 62 3.8 NNE 7 9 4 5 - - 0.6
23/10:00pm 15.1 11.6 8.8 66 3.4 WNW 17 24 9 13 - - 0.6
23/09:30pm 15.1 13.5 8.6 65 3.5 WSW 7 9 4 5 - - 0.6
23/09:00pm 14.9 13.2 8.4 65 3.5 W 7 9 4 5 - - 0.6
23/08:30pm 14.4 12.6 7.9 65 3.4 ENE 7 9 4 5 - - 0.6
23/08:00pm 14.6 12.1 8.3 66 3.4 ENE 11 15 6 8 - - 0.6
23/07:30pm 15.1 11.9 8.3 64 3.6 E 15 26 8 14 - - 0.6
23/07:00pm 15.7 12.7 9.1 65 3.6 E 15 26 8 14 - - 0.6
23/06:30pm 17.0 15.2 10.8 67 3.5 E 11 17 6 9 - - 0.6
23/06:00pm 16.6 15.2 10.9 69 3.2 E 9 13 5 7 - - 0.6
23/05:30pm 18.7 17.1 8.9 53 5.4 ENE 7 13 4 7 - - 0.6
23/05:00pm 19.9 18.1 9.5 51 5.8 E 9 17 5 9 - - 0.6
23/04:30pm 21.7 19.5 9.3 45 7.0 ENE 11 19 6 10 - - 0.6
23/04:00pm 23.4 21.7 9.8 42 7.8 E 9 17 5 9 - - 0.6
23/03:30pm 23.3 21.7 8.6 39 8.3 NE 7 13 4 7 - - 0.6

Other Formats:

Comma delimited format used in spreadsheet applications
http://www.bom.gov.au/fwo/IDN60801/IDN60801.94743.axf

JavaScript Object Notation format (JSON) in row-major order
http://www.bom.gov.au/fwo/IDN60801/IDN60801.94743.json